sensor_id;sensor_type;location;lat;lon;timestamp;pressure;altitude;pressure_sealevel;temperature;humidity
18749;BME280;9503;53.560;10.246;2024-03-02T00:00:14;99797.78;;;15.70;67.37
18749;BME280;9503;53.560;10.246;2024-03-02T00:02:44;99795.25;;;15.74;67.55
18749;BME280;9503;53.560;10.246;2024-03-02T00:05:11;99799.84;;;15.32;68.49
18749;BME280;9503;53.560;10.246;2024-03-02T00:07:39;99791.94;;;15.21;68.20
18749;BME280;9503;53.560;10.246;2024-03-02T00:10:09;99791.91;;;15.80;67.13
18749;BME280;9503;53.560;10.246;2024-03-02T00:12:37;99790.16;;;15.79;67.00
18749;BME280;9503;53.560;10.246;2024-03-02T00:15:05;99792.78;;;15.85;67.42
18749;BME280;9503;53.560;10.246;2024-03-02T00:17:33;99793.09;;;16.10;66.00
18749;BME280;9503;53.560;10.246;2024-03-02T00:20:03;99797.41;;;16.14;65.85
18749;BME280;9503;53.560;10.246;2024-03-02T00:22:30;99790.03;;;15.71;66.25
18749;BME280;9503;53.560;10.246;2024-03-02T00:24:57;99788.47;;;15.84;66.53
18749;BME280;9503;53.560;10.246;2024-03-02T00:27:24;99783.56;;;15.39;67.91
18749;BME280;9503;53.560;10.246;2024-03-02T00:29:51;99783.00;;;15.60;68.01
18749;BME280;9503;53.560;10.246;2024-03-02T00:32:17;99773.56;;;15.62;67.42
18749;BME280;9503;53.560;10.246;2024-03-02T00:34:44;99772.28;;;15.32;68.90
18749;BME280;9503;53.560;10.246;2024-03-02T00:37:12;99763.34;;;15.07;69.41
18749;BME280;9503;53.560;10.246;2024-03-02T00:39:40;99761.38;;;15.53;68.38
18749;BME280;9503;53.560;10.246;2024-03-02T00:42:07;99757.13;;;15.58;68.07
18749;BME280;9503;53.560;10.246;2024-03-02T00:44:34;99759.59;;;15.49;68.62
18749;BME280;9503;53.560;10.246;2024-03-02T00:47:01;99764.44;;;15.26;69.48
18749;BME280;9503;53.560;10.246;2024-03-02T00:49:28;99762.41;;;15.04;69.99
18749;BME280;9503;53.560;10.246;2024-03-02T00:51:55;99769.47;;;15.14;70.14
18749;BME280;9503;53.560;10.246;2024-03-02T00:54:25;99769.50;;;15.18;70.44
18749;BME280;9503;53.560;10.246;2024-03-02T00:56:54;99770.03;;;14.93;70.93
18749;BME280;9503;53.560;10.246;2024-03-02T00:59:21;99765.66;;;14.90;71.75
18749;BME280;9503;53.560;10.246;2024-03-02T01:01:49;99772.97;;;15.19;71.03
18749;BME280;9503;53.560;10.246;2024-03-02T01:04:16;99768.97;;;14.32;73.19
18749;BME280;9503;53.560;10.246;2024-03-02T01:06:42;99764.03;;;14.44;73.74
18749;BME280;9503;53.560;10.246;2024-03-02T01:09:09;99769.06;;;14.86;72.49
18749;BME280;9503;53.560;10.246;2024-03-02T01:11:39;99773.09;;;14.69;73.07
18749;BME280;9503;53.560;10.246;2024-03-02T01:14:05;99765.19;;;14.60;73.66
18749;BME280;9503;53.560;10.246;2024-03-02T01:16:32;99766.63;;;14.44;73.73
18749;BME280;9503;53.560;10.246;2024-03-02T01:18:59;99754.31;;;14.79;72.69
18749;BME280;9503;53.560;10.246;2024-03-02T01:21:25;99764.75;;;14.87;72.74
18749;BME280;9503;53.560;10.246;2024-03-02T01:23:52;99762.47;;;15.07;71.53
18749;BME280;9503;53.560;10.246;2024-03-02T01:26:19;99761.75;;;15.15;71.75
18749;BME280;9503;53.560;10.246;2024-03-02T01:28:47;99756.06;;;14.82;71.40
18749;BME280;9503;53.560;10.246;2024-03-02T01:31:14;99750.47;;;15.12;71.02
18749;BME280;9503;53.560;10.246;2024-03-02T01:33:40;99758.00;;;14.97;71.34
18749;BME280;9503;53.560;10.246;2024-03-02T01:36:07;99755.53;;;15.03;71.17
18749;BME280;9503;53.560;10.246;2024-03-02T01:38:34;99751.19;;;14.99;72.32
18749;BME280;9503;53.560;10.246;2024-03-02T01:41:01;99744.13;;;14.88;72.29
18749;BME280;9503;53.560;10.246;2024-03-02T01:43:28;99741.66;;;14.96;72.21
18749;BME280;9503;53.560;10.246;2024-03-02T01:45:56;99748.53;;;14.96;71.59
18749;BME280;9503;53.560;10.246;2024-03-02T01:48:23;99741.88;;;15.11;71.43
18749;BME280;9503;53.560;10.246;2024-03-02T01:50:50;99745.47;;;15.21;70.87
18749;BME280;9503;53.560;10.246;2024-03-02T01:53:16;99748.16;;;15.29;70.33
18749;BME280;9503;53.560;10.246;2024-03-02T01:55:44;99748.53;;;14.96;70.93
18749;BME280;9503;53.560;10.246;2024-03-02T01:58:10;99740.22;;;15.15;70.86
18749;BME280;9503;53.560;10.246;2024-03-02T02:00:37;99748.06;;;15.21;70.48
18749;BME280;9503;53.560;10.246;2024-03-02T02:03:05;99748.94;;;15.25;70.62
18749;BME280;9503;53.560;10.246;2024-03-02T02:05:32;99747.06;;;15.13;70.39
18749;BME280;9503;53.560;10.246;2024-03-02T02:08:00;99753.97;;;15.14;70.77
18749;BME280;9503;53.560;10.246;2024-03-02T02:10:27;99748.59;;;14.99;70.88
18749;BME280;9503;53.560;10.246;2024-03-02T02:12:54;99751.25;;;15.05;70.62
18749;BME280;9503;53.560;10.246;2024-03-02T02:15:25;99746.81;;;14.95;71.04
18749;BME280;9503;53.560;10.246;2024-03-02T02:17:52;99748.84;;;15.18;70.45
18749;BME280;9503;53.560;10.246;2024-03-02T02:20:20;99745.28;;;15.09;70.24
18749;BME280;9503;53.560;10.246;2024-03-02T02:22:58;99742.81;;;15.18;70.14
18749;BME280;9503;53.560;10.246;2024-03-02T02:25:25;99744.59;;;15.20;70.42
18749;BME280;9503;53.560;10.246;2024-03-02T02:27:52;99745.41;;;15.19;70.03
18749;BME280;9503;53.560;10.246;2024-03-02T02:30:20;99733.91;;;14.96;70.45
18749;BME280;9503;53.560;10.246;2024-03-02T02:32:47;99732.47;;;15.15;70.25
18749;BME280;9503;53.560;10.246;2024-03-02T02:35:14;99737.44;;;15.01;70.51
18749;BME280;9503;53.560;10.246;2024-03-02T02:37:41;99737.34;;;14.95;71.09
18749;BME280;9503;53.560;10.246;2024-03-02T02:40:10;99730.47;;;14.97;70.79
18749;BME280;9503;53.560;10.246;2024-03-02T02:42:36;99742.50;;;14.95;70.19
18749;BME280;9503;53.560;10.246;2024-03-02T02:45:04;99741.66;;;14.95;70.38
18749;BME280;9503;53.560;10.246;2024-03-02T02:47:31;99735.38;;;14.79;71.10
18749;BME280;9503;53.560;10.246;2024-03-02T02:50:00;99731.94;;;14.78;70.83
18749;BME280;9503;53.560;10.246;2024-03-02T02:52:31;99729.31;;;14.75;71.09
18749;BME280;9503;53.560;10.246;2024-03-02T02:54:58;99732.06;;;14.87;70.44
18749;BME280;9503;53.560;10.246;2024-03-02T02:57:26;99732.50;;;14.59;71.59
18749;BME280;9503;53.560;10.246;2024-03-02T02:59:53;99732.47;;;14.56;72.25
18749;BME280;9503;53.560;10.246;2024-03-02T03:02:19;99723.22;;;14.70;71.65
18749;BME280;9503;53.560;10.246;2024-03-02T03:04:46;99719.06;;;14.80;70.96
18749;BME280;9503;53.560;10.246;2024-03-02T03:07:13;99717.50;;;14.38;72.02
18749;BME280;9503;53.560;10.246;2024-03-02T03:09:39;99715.84;;;14.40;72.13
18749;BME280;9503;53.560;10.246;2024-03-02T03:12:06;99714.34;;;14.53;72.12
18749;BME280;9503;53.560;10.246;2024-03-02T03:14:34;99713.81;;;14.74;71.29
18749;BME280;9503;53.560;10.246;2024-03-02T03:17:01;99714.13;;;14.41;72.12
18749;BME280;9503;53.560;10.246;2024-03-02T03:19:28;99709.19;;;14.03;73.61
18749;BME280;9503;53.560;10.246;2024-03-02T03:21:55;99715.66;;;14.29;72.78
18749;BME280;9503;53.560;10.246;2024-03-02T03:24:21;99715.00;;;14.43;72.24
18749;BME280;9503;53.560;10.246;2024-03-02T03:26:48;99718.75;;;14.60;71.36
18749;BME280;9503;53.560;10.246;2024-03-02T03:29:14;99714.53;;;14.65;71.32
18749;BME280;9503;53.560;10.246;2024-03-02T03:31:42;99717.75;;;14.52;72.01
18749;BME280;9503;53.560;10.246;2024-03-02T03:34:09;99720.69;;;14.73;71.13
18749;BME280;9503;53.560;10.246;2024-03-02T03:36:37;99719.19;;;14.89;70.77
18749;BME280;9503;53.560;10.246;2024-03-02T03:39:04;99709.59;;;14.80;70.37
18749;BME280;9503;53.560;10.246;2024-03-02T03:41:31;99717.88;;;14.59;71.06
18749;BME280;9503;53.560;10.246;2024-03-02T03:43:58;99719.41;;;15.04;69.57
18749;BME280;9503;53.560;10.246;2024-03-02T03:46:24;99715.03;;;14.99;69.34
18749;BME280;9503;53.560;10.246;2024-03-02T03:48:52;99716.47;;;14.80;70.30
18749;BME280;9503;53.560;10.246;2024-03-02T03:51:19;99712.41;;;14.96;69.94
18749;BME280;9503;53.560;10.246;2024-03-02T03:53:46;99719.81;;;14.21;72.00
18749;BME280;9503;53.560;10.246;2024-03-02T03:56:12;99713.31;;;14.43;71.24
18749;BME280;9503;53.560;10.246;2024-03-02T03:58:39;99716.41;;;14.24;72.43
18749;BME280;9503;53.560;10.246;2024-03-02T04:01:05;99723.59;;;14.40;71.61
18749;BME280;9503;53.560;10.246;2024-03-02T04:03:32;99721.34;;;14.61;70.80
18749;BME280;9503;53.560;10.246;2024-03-02T04:06:00;99727.53;;;14.71;70.88
18749;BME280;9503;53.560;10.246;2024-03-02T04:08:26;99715.69;;;14.84;70.15
18749;BME280;9503;53.560;10.246;2024-03-02T04:10:53;99705.69;;;14.49;70.66
18749;BME280;9503;53.560;10.246;2024-03-02T04:13:20;99713.06;;;14.29;71.28
18749;BME280;9503;53.560;10.246;2024-03-02T04:15:46;99715.38;;;14.62;70.74
18749;BME280;9503;53.560;10.246;2024-03-02T04:18:13;99711.19;;;14.71;70.31
18749;BME280;9503;53.560;10.246;2024-03-02T04:20:39;99703.38;;;14.16;71.62
18749;BME280;9503;53.560;10.246;2024-03-02T04:23:07;99692.16;;;13.64;73.55
18749;BME280;9503;53.560;10.246;2024-03-02T04:25:34;99694.63;;;14.06;73.24
18749;BME280;9503;53.560;10.246;2024-03-02T04:28:01;99690.94;;;13.92;73.25
18749;BME280;9503;53.560;10.246;2024-03-02T04:30:28;99694.91;;;14.23;71.73
18749;BME280;9503;53.560;10.246;2024-03-02T04:32:54;99694.53;;;14.50;71.22
18749;BME280;9503;53.560;10.246;2024-03-02T04:35:21;99694.88;;;14.72;69.89
18749;BME280;9503;53.560;10.246;2024-03-02T04:37:47;99701.75;;;14.71;70.10
18749;BME280;9503;53.560;10.246;2024-03-02T04:40:15;99694.19;;;14.85;69.47
18749;BME280;9503;53.560;10.246;2024-03-02T04:42:42;99702.94;;;14.96;68.85
18749;BME280;9503;53.560;10.246;2024-03-02T04:45:09;99700.31;;;14.91;69.38
18749;BME280;9503;53.560;10.246;2024-03-02T04:47:36;99705.38;;;14.85;69.28
18749;BME280;9503;53.560;10.246;2024-03-02T04:50:03;99707.19;;;14.91;68.83
18749;BME280;9503;53.560;10.246;2024-03-02T04:52:29;99705.00;;;14.61;69.42
18749;BME280;9503;53.560;10.246;2024-03-02T04:54:56;99703.59;;;14.83;69.28
18749;BME280;9503;53.560;10.246;2024-03-02T04:57:41;99710.69;;;14.98;68.66
18749;BME280;9503;53.560;10.246;2024-03-02T05:00:09;99711.75;;;15.10;68.08
18749;BME280;9503;53.560;10.246;2024-03-02T05:02:36;99717.69;;;15.05;68.44
18749;BME280;9503;53.560;10.246;2024-03-02T05:05:03;99719.34;;;15.00;68.04
18749;BME280;9503;53.560;10.246;2024-03-02T05:07:30;99716.97;;;15.13;68.04
18749;BME280;9503;53.560;10.246;2024-03-02T05:09:56;99725.19;;;14.88;67.98
18749;BME280;9503;53.560;10.246;2024-03-02T05:12:23;99728.63;;;14.85;68.04
18749;BME280;9503;53.560;10.246;2024-03-02T05:15:14;99726.50;;;14.60;69.24
18749;BME280;9503;53.560;10.246;2024-03-02T05:17:42;99727.88;;;14.96;67.92
18749;BME280;9503;53.560;10.246;2024-03-02T05:20:09;99722.59;;;14.33;69.65
18749;BME280;9503;53.560;10.246;2024-03-02T05:22:36;99713.66;;;14.13;70.73
18749;BME280;9503;53.560;10.246;2024-03-02T05:25:04;99719.19;;;14.36;69.53
18749;BME280;9503;53.560;10.246;2024-03-02T05:27:31;99715.16;;;14.49;69.68
18749;BME280;9503;53.560;10.246;2024-03-02T05:29:58;99724.06;;;14.69;68.74
18749;BME280;9503;53.560;10.246;2024-03-02T05:32:26;99724.72;;;14.54;69.38
18749;BME280;9503;53.560;10.246;2024-03-02T05:34:53;99723.97;;;14.63;68.74
18749;BME280;9503;53.560;10.246;2024-03-02T05:37:20;99713.56;;;14.58;68.95
18749;BME280;9503;53.560;10.246;2024-03-02T05:39:46;99715.75;;;13.87;71.25
18749;BME280;9503;53.560;10.246;2024-03-02T05:42:13;99715.84;;;14.40;70.56
18749;BME280;9503;53.560;10.246;2024-03-02T05:44:42;99720.69;;;14.73;68.89
18749;BME280;9503;53.560;10.246;2024-03-02T05:47:08;99724.44;;;14.93;67.87
18749;BME280;9503;53.560;10.246;2024-03-02T05:49:36;99717.34;;;14.27;69.50
18749;BME280;9503;53.560;10.246;2024-03-02T05:52:03;99719.63;;;14.60;69.36
18749;BME280;9503;53.560;10.246;2024-03-02T05:54:30;99724.00;;;14.66;69.14
18749;BME280;9503;53.560;10.246;2024-03-02T05:56:56;99722.63;;;14.89;68.04
18749;BME280;9503;53.560;10.246;2024-03-02T05:59:41;99728.06;;;15.08;67.38
18749;BME280;9503;53.560;10.246;2024-03-02T06:02:08;99729.72;;;15.03;67.47
18749;BME280;9503;53.560;10.246;2024-03-02T06:04:36;99727.31;;;15.15;67.64
18749;BME280;9503;53.560;10.246;2024-03-02T06:07:03;99730.44;;;14.91;68.22
18749;BME280;9503;53.560;10.246;2024-03-02T06:09:29;99725.63;;;14.61;69.41
18749;BME280;9503;53.560;10.246;2024-03-02T06:11:56;99723.78;;;14.52;69.36
18749;BME280;9503;53.560;10.246;2024-03-02T06:14:23;99726.66;;;14.71;69.16
18749;BME280;9503;53.560;10.246;2024-03-02T06:16:49;99718.09;;;14.20;69.88
18749;BME280;9503;53.560;10.246;2024-03-02T06:19:16;99720.53;;;14.14;70.36
18749;BME280;9503;53.560;10.246;2024-03-02T06:21:44;99713.75;;;14.18;70.57
18749;BME280;9503;53.560;10.246;2024-03-02T06:24:11;99722.53;;;14.30;70.20
18749;BME280;9503;53.560;10.246;2024-03-02T06:26:37;99725.91;;;14.76;69.09
18749;BME280;9503;53.560;10.246;2024-03-02T06:29:04;99732.38;;;14.51;69.29
18749;BME280;9503;53.560;10.246;2024-03-02T06:31:31;99732.72;;;14.74;68.30
18749;BME280;9503;53.560;10.246;2024-03-02T06:33:57;99726.81;;;14.80;68.56
18749;BME280;9503;53.560;10.246;2024-03-02T06:36:24;99737.78;;;14.67;68.76
18749;BME280;9503;53.560;10.246;2024-03-02T06:38:52;99737.66;;;14.59;68.89
18749;BME280;9503;53.560;10.246;2024-03-02T06:41:19;99744.75;;;14.74;68.34
18749;BME280;9503;53.560;10.246;2024-03-02T06:43:45;99740.03;;;15.01;67.66
18749;BME280;9503;53.560;10.246;2024-03-02T06:46:12;99747.97;;;14.59;68.56
18749;BME280;9503;53.560;10.246;2024-03-02T06:48:40;99752.63;;;14.83;68.29
18749;BME280;9503;53.560;10.246;2024-03-02T06:51:07;99750.53;;;14.57;69.18
18749;BME280;9503;53.560;10.246;2024-03-02T06:53:33;99746.59;;;14.81;68.38
18749;BME280;9503;53.560;10.246;2024-03-02T06:56:01;99744.94;;;14.84;68.36
18749;BME280;9503;53.560;10.246;2024-03-02T06:58:28;99739.84;;;14.36;69.66
18749;BME280;9503;53.560;10.246;2024-03-02T07:00:54;99743.97;;;14.26;70.06
18749;BME280;9503;53.560;10.246;2024-03-02T07:03:21;99745.53;;;14.68;69.37
18749;BME280;9503;53.560;10.246;2024-03-02T07:05:47;99743.13;;;14.77;68.92
18749;BME280;9503;53.560;10.246;2024-03-02T07:08:14;99742.44;;;14.90;68.24
18749;BME280;9503;53.560;10.246;2024-03-02T07:10:41;99747.56;;;14.87;68.35
18749;BME280;9503;53.560;10.246;2024-03-02T07:13:09;99754.78;;;15.13;67.62
18749;BME280;9503;53.560;10.246;2024-03-02T07:15:35;99752.09;;;15.04;67.69
18749;BME280;9503;53.560;10.246;2024-03-02T07:18:31;99740.31;;;14.63;68.52
18749;BME280;9503;53.560;10.246;2024-03-02T07:20:58;99747.97;;;14.59;68.98
18749;BME280;9503;53.560;10.246;2024-03-02T07:23:26;99750.25;;;14.42;69.47
18749;BME280;9503;53.560;10.246;2024-03-02T07:25:53;99744.09;;;13.87;71.09
18749;BME280;9503;53.560;10.246;2024-03-02T07:28:23;99747.09;;;14.58;69.82
18749;BME280;9503;53.560;10.246;2024-03-02T07:30:57;99747.28;;;14.69;69.48
18749;BME280;9503;53.560;10.246;2024-03-02T07:33:25;99743.47;;;15.03;68.50
18749;BME280;9503;53.560;10.246;2024-03-02T07:35:51;99754.41;;;15.46;66.55
18749;BME280;9503;53.560;10.246;2024-03-02T07:38:18;99766.78;;;15.70;65.90
18749;BME280;9503;53.560;10.246;2024-03-02T07:40:45;99771.31;;;15.88;65.50
18749;BME280;9503;53.560;10.246;2024-03-02T07:43:12;99783.53;;;16.06;64.99
18749;BME280;9503;53.560;10.246;2024-03-02T07:45:40;99780.31;;;16.23;64.58
18749;BME280;9503;53.560;10.246;2024-03-02T07:48:07;99783.06;;;16.43;64.60
18749;BME280;9503;53.560;10.246;2024-03-02T07:50:33;99782.97;;;16.34;64.23
18749;BME280;9503;53.560;10.246;2024-03-02T07:53:00;99786.63;;;16.57;63.67
18749;BME280;9503;53.560;10.246;2024-03-02T07:55:27;99792.78;;;16.67;63.54
18749;BME280;9503;53.560;10.246;2024-03-02T07:57:53;99798.81;;;16.68;63.17
18749;BME280;9503;53.560;10.246;2024-03-02T08:00:20;99791.78;;;16.53;63.31
18749;BME280;9503;53.560;10.246;2024-03-02T08:02:49;99789.28;;;16.67;63.43
18749;BME280;9503;53.560;10.246;2024-03-02T08:05:17;99799.09;;;17.01;62.42
18749;BME280;9503;53.560;10.246;2024-03-02T08:07:45;99795.81;;;17.31;62.34
18749;BME280;9503;53.560;10.246;2024-03-02T08:10:12;99797.75;;;16.46;63.19
18749;BME280;9503;53.560;10.246;2024-03-02T08:12:39;99800.81;;;17.02;62.69
18749;BME280;9503;53.560;10.246;2024-03-02T08:15:06;99791.09;;;16.69;63.15
18749;BME280;9503;53.560;10.246;2024-03-02T08:17:33;99805.09;;;16.94;62.64
18749;BME280;9503;53.560;10.246;2024-03-02T08:20:01;99813.19;;;17.43;61.65
18749;BME280;9503;53.560;10.246;2024-03-02T08:22:27;99814.03;;;17.45;61.48
18749;BME280;9503;53.560;10.246;2024-03-02T08:24:54;99817.69;;;17.75;61.05
18749;BME280;9503;53.560;10.246;2024-03-02T08:27:21;99811.75;;;18.00;60.28
18749;BME280;9503;53.560;10.246;2024-03-02T08:29:47;99813.44;;;17.98;60.26
18749;BME280;9503;53.560;10.246;2024-03-02T08:32:14;99814.34;;;18.02;59.98
18749;BME280;9503;53.560;10.246;2024-03-02T08:34:42;99816.13;;;18.27;59.38
18749;BME280;9503;53.560;10.246;2024-03-02T08:37:10;99816.13;;;18.26;59.28
18749;BME280;9503;53.560;10.246;2024-03-02T08:39:37;99816.19;;;18.52;58.82
18749;BME280;9503;53.560;10.246;2024-03-02T08:42:04;99808.38;;;18.44;58.70
18749;BME280;9503;53.560;10.246;2024-03-02T08:44:30;99815.31;;;18.51;58.39
18749;BME280;9503;53.560;10.246;2024-03-02T08:46:58;99824.84;;;18.61;58.07
18749;BME280;9503;53.560;10.246;2024-03-02T08:49:25;99825.72;;;18.71;57.31
18749;BME280;9503;53.560;10.246;2024-03-02T08:51:51;99830.06;;;18.72;57.53
18749;BME280;9503;53.560;10.246;2024-03-02T08:54:21;99821.34;;;18.50;57.29
18749;BME280;9503;53.560;10.246;2024-03-02T08:56:47;99827.38;;;18.23;57.61
18749;BME280;9503;53.560;10.246;2024-03-02T08:59:14;99820.53;;;18.78;56.83
18749;BME280;9503;53.560;10.246;2024-03-02T09:01:41;99828.25;;;18.31;57.31
18749;BME280;9503;53.560;10.246;2024-03-02T09:04:08;99825.63;;;18.28;57.22
18749;BME280;9503;53.560;10.246;2024-03-02T09:06:35;99824.03;;;18.74;56.93
18749;BME280;9503;53.560;10.246;2024-03-02T09:09:01;99825.75;;;18.88;56.45
18749;BME280;9503;53.560;10.246;2024-03-02T09:11:31;99829.19;;;18.99;56.48
18749;BME280;9503;53.560;10.246;2024-03-02T09:13:58;99825.75;;;18.91;56.49
18749;BME280;9503;53.560;10.246;2024-03-02T09:16:24;99819.66;;;19.27;55.60
18749;BME280;9503;53.560;10.246;2024-03-02T09:18:56;99821.41;;;19.11;55.72
18749;BME280;9503;53.560;10.246;2024-03-02T09:21:22;99826.59;;;18.99;56.13
18749;BME280;9503;53.560;10.246;2024-03-02T09:23:50;99824.81;;;19.38;55.22
18749;BME280;9503;53.560;10.246;2024-03-02T09:26:17;99835.25;;;19.15;55.53
18749;BME280;9503;53.560;10.246;2024-03-02T09:28:46;99828.28;;;18.63;56.41
18749;BME280;9503;53.560;10.246;2024-03-02T09:31:13;99830.09;;;18.81;56.24
18749;BME280;9503;53.560;10.246;2024-03-02T09:33:39;99830.84;;;18.33;56.45
18749;BME280;9503;53.560;10.246;2024-03-02T09:36:12;99834.31;;;18.35;56.86
18749;BME280;9503;53.560;10.246;2024-03-02T09:38:42;99841.31;;;18.78;56.39
18749;BME280;9503;53.560;10.246;2024-03-02T09:41:09;99841.31;;;19.27;55.39
18749;BME280;9503;53.560;10.246;2024-03-02T09:43:35;99838.66;;;18.65;56.38
18749;BME280;9503;53.560;10.246;2024-03-02T09:46:03;99838.75;;;18.95;56.33
18749;BME280;9503;53.560;10.246;2024-03-02T09:48:31;99832.59;;;19.38;55.72
18749;BME280;9503;53.560;10.246;2024-03-02T09:50:59;99833.44;;;19.59;55.32
18749;BME280;9503;53.560;10.246;2024-03-02T09:53:31;99838.53;;;19.93;54.90
18749;BME280;9503;53.560;10.246;2024-03-02T09:55:59;99834.13;;;20.13;54.35
18749;BME280;9503;53.560;10.246;2024-03-02T09:58:25;99842.75;;;20.23;53.95
18749;BME280;9503;53.560;10.246;2024-03-02T10:00:52;99844.66;;;19.84;54.52
18749;BME280;9503;53.560;10.246;2024-03-02T10:03:20;99843.88;;;19.43;54.31
18749;BME280;9503;53.560;10.246;2024-03-02T10:05:49;99841.19;;;19.82;54.42
18749;BME280;9503;53.560;10.246;2024-03-02T10:08:17;99840.44;;;19.15;55.27
18749;BME280;9503;53.560;10.246;2024-03-02T10:10:44;99827.47;;;19.04;55.78
18749;BME280;9503;53.560;10.246;2024-03-02T10:13:12;99839.47;;;19.78;55.30
18749;BME280;9503;53.560;10.246;2024-03-02T10:15:40;99840.22;;;20.06;54.32
18749;BME280;9503;53.560;10.246;2024-03-02T10:18:08;99840.00;;;20.41;53.12
18749;BME280;9503;53.560;10.246;2024-03-02T10:20:37;99843.94;;;21.04;52.30
18749;BME280;9503;53.560;10.246;2024-03-02T10:23:10;99835.03;;;20.02;52.97
18749;BME280;9503;53.560;10.246;2024-03-02T10:25:37;99840.13;;;20.28;53.16
18749;BME280;9503;53.560;10.246;2024-03-02T10:28:04;99841.06;;;20.14;52.89
18749;BME280;9503;53.560;10.246;2024-03-02T10:30:31;99841.09;;;20.02;53.12
18749;BME280;9503;53.560;10.246;2024-03-02T10:32:58;99844.38;;;20.39;52.98
18749;BME280;9503;53.560;10.246;2024-03-02T10:35:26;99846.78;;;20.73;52.38
18749;BME280;9503;53.560;10.246;2024-03-02T10:37:54;99845.97;;;20.66;52.38
18749;BME280;9503;53.560;10.246;2024-03-02T10:40:21;99850.97;;;20.92;52.34
18749;BME280;9503;53.560;10.246;2024-03-02T10:42:49;99844.44;;;21.45;51.43
18749;BME280;9503;53.560;10.246;2024-03-02T10:45:17;99846.44;;;21.16;51.27
18749;BME280;9503;53.560;10.246;2024-03-02T10:47:47;99847.22;;;21.24;51.16
18749;BME280;9503;53.560;10.246;2024-03-02T10:50:14;99840.25;;;21.29;51.33
18749;BME280;9503;53.560;10.246;2024-03-02T10:52:43;99843.81;;;21.17;51.24
18749;BME280;9503;53.560;10.246;2024-03-02T10:55:11;99841.50;;;21.73;50.24
18749;BME280;9503;53.560;10.246;2024-03-02T10:57:41;99848.00;;;22.14;50.09
18749;BME280;9503;53.560;10.246;2024-03-02T11:00:12;99846.16;;;22.22;49.15
18749;BME280;9503;53.560;10.246;2024-03-02T11:02:49;99838.56;;;22.03;48.96
18749;BME280;9503;53.560;10.246;2024-03-02T11:05:25;99845.50;;;22.04;48.78
18749;BME280;9503;53.560;10.246;2024-03-02T11:07:53;99851.69;;;21.97;49.43
18749;BME280;9503;53.560;10.246;2024-03-02T11:10:25;99862.88;;;21.24;50.21
18749;BME280;9503;53.560;10.246;2024-03-02T11:12:56;99856.78;;;21.22;49.96
18749;BME280;9503;53.560;10.246;2024-03-02T11:15:27;99852.88;;;20.72;50.65
18749;BME280;9503;53.560;10.246;2024-03-02T11:17:57;99853.56;;;20.97;50.47
18749;BME280;9503;53.560;10.246;2024-03-02T11:20:24;99856.75;;;21.27;50.03
18749;BME280;9503;53.560;10.246;2024-03-02T11:22:51;99854.09;;;21.37;49.68
18749;BME280;9503;53.560;10.246;2024-03-02T11:25:24;99855.69;;;21.50;49.48
18749;BME280;9503;53.560;10.246;2024-03-02T11:28:05;99854.84;;;21.47;49.52
18749;BME280;9503;53.560;10.246;2024-03-02T11:30:50;99864.50;;;21.39;49.79
18749;BME280;9503;53.560;10.246;2024-03-02T11:33:26;99857.50;;;21.45;49.70
18749;BME280;9503;53.560;10.246;2024-03-02T11:35:56;99860.19;;;21.38;50.06
18749;BME280;9503;53.560;10.246;2024-03-02T11:38:28;99852.31;;;22.16;49.52
18749;BME280;9503;53.560;10.246;2024-03-02T11:40:56;99864.53;;;21.37;49.60
18749;BME280;9503;53.560;10.246;2024-03-02T11:43:23;99860.16;;;21.36;49.52
18749;BME280;9503;53.560;10.246;2024-03-02T11:45:56;99857.25;;;21.65;49.37
18749;BME280;9503;53.560;10.246;2024-03-02T11:48:24;99858.38;;;21.41;49.54
18749;BME280;9503;53.560;10.246;2024-03-02T11:50:52;99852.09;;;20.64;50.67
18749;BME280;9503;53.560;10.246;2024-03-02T11:53:20;99850.31;;;20.66;50.46
18749;BME280;9503;53.560;10.246;2024-03-02T11:55:47;99847.44;;;21.03;49.95
18749;BME280;9503;53.560;10.246;2024-03-02T11:58:16;99846.91;;;21.58;49.09
18749;BME280;9503;53.560;10.246;2024-03-02T12:00:45;99855.09;;;21.18;49.77
18749;BME280;9503;53.560;10.246;2024-03-02T12:03:13;99852.41;;;21.29;49.27
18749;BME280;9503;53.560;10.246;2024-03-02T12:05:40;99856.66;;;21.40;49.28
18749;BME280;9503;53.560;10.246;2024-03-02T12:08:07;99857.94;;;20.93;49.86
18749;BME280;9503;53.560;10.246;2024-03-02T12:10:35;99852.38;;;21.33;49.18
18749;BME280;9503;53.560;10.246;2024-03-02T12:13:04;99850.50;;;21.47;49.60
18749;BME280;9503;53.560;10.246;2024-03-02T12:15:34;99856.75;;;21.33;49.98
18749;BME280;9503;53.560;10.246;2024-03-02T12:18:02;99852.03;;;21.65;49.56
18749;BME280;9503;53.560;10.246;2024-03-02T12:20:30;99847.88;;;21.49;49.39
18749;BME280;9503;53.560;10.246;2024-03-02T12:22:58;99854.78;;;21.55;49.53
18749;BME280;9503;53.560;10.246;2024-03-02T12:25:25;99851.56;;;21.22;49.57
18749;BME280;9503;53.560;10.246;2024-03-02T12:27:53;99848.09;;;21.28;49.51
18749;BME280;9503;53.560;10.246;2024-03-02T12:30:21;99850.25;;;20.75;50.55
18749;BME280;9503;53.560;10.246;2024-03-02T12:32:50;99848.63;;;21.60;49.30
18749;BME280;9503;53.560;10.246;2024-03-02T12:35:18;99851.56;;;21.22;49.81
18749;BME280;9503;53.560;10.246;2024-03-02T12:37:47;99849.00;;;21.19;49.76
18749;BME280;9503;53.560;10.246;2024-03-02T12:40:14;99848.03;;;21.34;49.15
18749;BME280;9503;53.560;10.246;2024-03-02T12:42:43;99837.03;;;21.01;50.11
18749;BME280;9503;53.560;10.246;2024-03-02T12:45:10;99839.78;;;20.78;50.37
18749;BME280;9503;53.560;10.246;2024-03-02T12:47:37;99838.75;;;21.01;49.99
18749;BME280;9503;53.560;10.246;2024-03-02T12:50:07;99849.88;;;21.19;49.44
18749;BME280;9503;53.560;10.246;2024-03-02T12:52:35;99846.72;;;21.73;48.83
18749;BME280;9503;53.560;10.246;2024-03-02T12:55:04;99851.41;;;21.45;49.08
18749;BME280;9503;53.560;10.246;2024-03-02T12:57:31;99846.31;;;21.33;49.23
18749;BME280;9503;53.560;10.246;2024-03-02T12:59:59;99839.41;;;21.22;49.35
18749;BME280;9503;53.560;10.246;2024-03-02T13:02:27;99837.88;;;21.89;48.61